Sedgwick Reserve, California Weather observations

Data are for 10 minute period ending at time listed.
 Day   Time   Solar   Ave.   Ave.  Ave.  Vector  Max.   Baro.   Total    
  of    of     Rad.   Air    Rel.  Wind   Wind   Wind  Press.  Precip.   
Year   Day            Temp.  Hum.  Speed  Dir.   Gust                    
2014   (PST)  Kw/m2    F      %     mph   deg.    mph    mb.     in.     
-------------------------------------------------------------------------
 325   18:50   0.00   60.3    40    8.2   324    14.8   974.2    0.00 
 325   19:00   0.00   60.0    40    7.6   358    13.1   974.3    0.00 
 325   19:10   0.00   60.0    40    5.8   359    12.0   974.3    0.00 
 325   19:20   0.00   59.7    40    2.0   302     5.6   974.3    0.00 
 325   19:30   0.00   58.5    42    4.2   283     9.9   974.3    0.00 
 325   19:40   0.00   58.4    42    6.4   296     8.2   974.5    0.00 
 325   19:50   0.00   58.2    42    5.0   329     8.9   974.6    0.00 
 325   20:00   0.00   57.9    42    5.2   334     7.7   974.7    0.00 
 325   20:10   0.00   57.6    43    4.3   337     7.4   974.8    0.00 
 325   20:20   0.00   54.6    50    2.2   148     6.3   975.0    0.00 
 325   20:30   0.00   53.5    52    1.8   322     4.6   975.3    0.00 
 325   20:40   0.00   52.6    55    2.0     6     7.2   975.5    0.00 
 325   20:50   0.00   52.5    55    2.8   196     6.4   975.7    0.00 
 325   21:00   0.00   51.5    57    3.7    72     6.6   975.6    0.00 
 325   21:10   0.00   52.0    57    2.3   352     5.2   975.6    0.00 
 325   21:20   0.00   51.4    58    3.6   260     6.4   975.7    0.00 
 325   21:30   0.00   51.4    59    2.7   298     5.0   975.7    0.00 
 325   21:40   0.00   50.5    60    2.8     5     4.7   975.9    0.00 
 325   21:50   0.00   50.1    60    4.0   259     6.6   976.1    0.00 
 325   22:00   0.00   50.9    60    4.1   263     5.6   976.1    0.00 
 325   22:10   0.00   51.2    59    3.2   304     5.4   976.3    0.00 
 325   22:20   0.00   49.9    61    2.6     4     4.9   976.5    0.00 
 325   22:30   0.00   48.6    63    3.1    12     5.3   976.6    0.00 
 325   22:40   0.00   47.8    65    2.0     8     3.3   976.6    0.00 
 325   22:50   0.00   47.4    66    1.9   357     4.2   976.5    0.00 
 325   23:00   0.00   47.3    66    3.1   276     4.8   976.6    0.00 
 325   23:10   0.00   46.7    67    3.6   356     5.0   976.5    0.00 
 325   23:20   0.00   47.4    67    1.5   328     3.1   976.7    0.00 
 325   23:30   0.00   46.1    69    2.5   329     4.2   976.9    0.00 
 325   23:40   0.00   45.9    71    1.6   291     3.8   977.0    0.00 
 325   23:50   0.00   46.0    70    2.7    13     6.7   977.1    0.00 
 326    0:00   0.00   45.2    71    3.8   350     6.9   977.1    0.00 
 326    0:10   0.00   44.7    73    3.3   339     5.1   977.1    0.00 
 326    0:20   0.00   44.9    72    3.3   346     6.9   977.2    0.00 
 326    0:30   0.00   44.8    73    1.3    83     3.7   977.1    0.00 
 326    0:40   0.00   45.0    73    2.2   281     3.8   977.0    0.00 
 326    0:50   0.00   45.1    72    2.8   337     5.5   977.0    0.00 
 326    1:00   0.00   45.2    72    2.3   357     6.1   976.9    0.00 
 326    1:10   0.00   44.8    74    2.3   334     6.2   976.8    0.00 
 326    1:20   0.00   44.7    74    1.9   343     5.8   976.9    0.00 
 326    1:30   0.00   44.5    75    1.8   266     4.7   976.8    0.00 
 326    1:40   0.00   45.0    75    1.5   279     3.0   976.8    0.00 
 326    1:50   0.00   44.4    77    2.7    10     7.5   976.7    0.00 
 326    2:00   0.00   44.9    76    2.6   319     5.3   976.8    0.00 
 326    2:10   0.00   44.7    76    2.6     4     4.2   976.9    0.00 
 326    2:20   0.00   44.2    77    2.3   347     4.7   977.0    0.00 
 326    2:30   0.00   44.1    78    0.8   313     2.1   976.9    0.00 
 326    2:40   0.00   44.0    78    2.3   274     3.7   977.0    0.00 
 326    2:50   0.00   43.9    79    0.4   339     1.2   977.2    0.00 
 326    3:00   0.00   44.0    78    2.4   355     5.8   977.3    0.00 
 326    3:10   0.00   43.5    79    4.0     6     6.7   977.3    0.00 
 326    3:20   0.00   43.0    80    3.0   281     4.7   977.1    0.00 
 326    3:30   0.00   43.6    80    0.8   359     2.5   977.1    0.00 
 326    3:40   0.00   43.5    79    2.3     4     5.4   977.0    0.00 
 326    3:50   0.00   42.6    81    1.7   298     4.7   976.9    0.00 
 326    4:00   0.00   42.8    81    2.8   340     4.7   976.8    0.00 
 326    4:10   0.00   42.6    82    1.9   337     3.5   976.8    0.00 
 326    4:20   0.00   43.0    80    3.0     1     5.7   976.9    0.00 
 326    4:30   0.00   42.7    82    2.3   333     4.8   976.8    0.00 
 326    4:40   0.00   42.7    80    2.3     2     3.7   976.7    0.00 
 326    4:50   0.00   42.5    82    3.0   290     4.8   976.6    0.00 
 326    5:00   0.00   43.0    82    3.7   277     5.8   976.6    0.00 
 326    5:10   0.00   43.5    80    2.6   340     4.2   976.7    0.00 
 326    5:20   0.00   43.1    80    3.5     4     5.5   976.6    0.00 
 326    5:30   0.00   43.4    80    1.2   329     2.3   976.7    0.00 
 326    5:40   0.00   43.3    80    1.9   359     4.0   976.8    0.00 
 326    5:50   0.00   42.9    82    2.0   345     3.5   976.8    0.00 
 326    6:00   0.00   42.7    82    2.7   320     4.0   976.8    0.00 
 326    6:10   0.00   43.0    83    3.2   277     5.8   977.0    0.00 
 326    6:20   0.00   43.2    81    2.2    21     3.9   977.0    0.00 
 326    6:30   0.00   42.8    82    3.4   356     5.0   977.2    0.00 
 326    6:40   0.00   42.1    83    3.1    15     6.0   977.0    0.00 
 326    6:50   0.01   42.1    84    3.5   284     5.6   976.9    0.00 
 326    7:00   0.02   43.8    81    3.7   282     7.4   977.1    0.00 
 326    7:10   0.05   44.6    78    2.1     4     3.2   977.3    0.00 
 326    7:20   0.07   45.3    77    1.5   356     3.6   977.3    0.00 
 326    7:30   0.09   45.8    77    1.2    19     3.1   977.4    0.00 
 326    7:40   0.11   47.2    74    1.3   355     3.0   977.5    0.00 
 326    7:50   0.15   48.2    73    2.8   356     3.7   977.4    0.00 
 326    8:00   0.20   49.8    70    2.1     8     3.5   977.4    0.00 
 326    8:10   0.26   54.2    60    0.8    93     1.5   977.3    0.00 
 326    8:20   0.28   56.6    55    1.1   153     2.9   977.3    0.00 
 326    8:30   0.20   56.7    54    2.0   124     3.4   977.3    0.00 
 326    8:40   0.23   56.7    54    1.5   128     3.2   977.6    0.00 
 326    8:50   0.21   57.2    53    2.0   132     3.1   977.6    0.00 
 326    9:00   0.21   56.8    54    1.6   133     3.1   977.8    0.00 
 326    9:10   0.29   57.6    52    2.7   233     5.5   978.2    0.00 
 326    9:20   0.36   57.5    50    5.0   266    10.7   978.3    0.00 
 326    9:30   0.39   59.0    46    4.2   275     7.5   978.3    0.00 
 326    9:40   0.41   60.8    44    2.7   232     4.7   978.1    0.00 
 326    9:50   0.43   61.5    44    3.1   254     7.1   978.0    0.00 
 326   10:00   0.45   63.6    41    2.9   141     5.9   977.9    0.00 
 326   10:10   0.47   64.8    40    3.9    96     9.0   977.7    0.00 
 326   10:20   0.48   62.5    46    7.2   141    10.2   977.7    0.00 
 326   10:30   0.50   62.8    45    5.2   127     7.5   977.7    0.00 
 326   10:40   0.51   64.3    43    5.5   122     8.8   977.7    0.00 
 326   10:50   0.52   65.0    42    4.6    97     7.6   977.8    0.00 
 326   11:00   0.50   67.3    39    4.1   201    11.6   977.7    0.00 
 326   11:10   0.54   67.9    38    9.6   280    16.8   977.5    0.00 
 326   11:20   0.55   68.9    38   10.5   278    21.7   977.3    0.00 
 326   11:30   0.54   67.7    40   15.7   274    26.0   977.2    0.00 
 326   11:40   0.55   68.4    40   14.0   277    21.9   977.1    0.00 
 326   11:50   0.55   68.1    41   13.9   279    23.5   976.8    0.00 
 326   12:00   0.54   68.1    42   14.5   274    23.3   976.6    0.00 
 326   12:10   0.55   68.2    42   16.0   277    24.6   976.4    0.00 
 326   12:20   0.55   68.9    42   15.2   278    23.4   976.2    0.00 
 326   12:30   0.54   69.4    43   15.7   276    25.0   976.0    0.00 
 326   12:40   0.54   70.1    42   14.8   283    27.5   975.9    0.00 
 326   12:50   0.52   68.8    45   18.3   276    28.9   975.9    0.00 
 326   13:00   0.52   68.6    47   16.5   281    26.9   975.9    0.00 
 326   13:10   0.50   69.2    48   16.3   285    27.3   975.7    0.00 
 326   13:20   0.49   68.9    50   15.3   282    25.6   975.5    0.00 
 326   13:30   0.48   69.4    50   15.8   280    25.7   975.4    0.00 
 326   13:40   0.46   69.6    52   16.0   288    25.7   975.3    0.00 
 326   13:50   0.46   69.5    55   15.4   294    27.0   975.3    0.00 
 326   14:00   0.43   69.0    58   15.2   290    27.3   975.3    0.00 
 326   14:10   0.41   68.8    61   15.3   285    28.9   975.3    0.00 
 326   14:20   0.40   68.3    63   14.7   291    25.8   975.3    0.00 
 326   14:30   0.34   68.1    65   16.4   290    29.5   975.4    0.00 
 326   14:40   0.34   68.1    65   14.0   297    28.1   975.4    0.00 
 326   14:50   0.32   68.4    65   15.0   298    24.4   975.3    0.00 
 326   15:00   0.31   67.6    66   17.1   300    24.9   975.3    0.00 
 326   15:10   0.31   67.7    66   15.2   300    26.8   975.2    0.00 
 326   15:20   0.29   67.8    66   15.3   294    26.3   975.1    0.00 
 326   15:30   0.28   67.7    67   13.4   292    23.4   975.0    0.00 
 326   15:40   0.22   67.6    67   13.6   301    23.7   975.1    0.00 
 326   15:50   0.21   67.2    69   14.8   296    24.3   975.1    0.00 
 326   16:00   0.19   66.3    72   13.6   290    23.0   975.0    0.00 
 326   16:10   0.12   65.8    73   12.5   294    21.4   975.0    0.00 
 326   16:20   0.07   65.3    74   11.8   294    21.3   975.2    0.00 
 326   16:30   0.07   64.7    76   13.1   285    24.8   974.9    0.00 
 326   16:40   0.03   63.7    79   11.9   290    19.4   974.7    0.00 
 326   16:50   0.01   63.0    81   12.0   292    20.0   974.5    0.00 
 326   17:00   0.00   62.6    83   13.6   290    21.3   974.5    0.00 
 326   17:10   0.00   62.1    84   13.6   295    22.1   974.5    0.00 
 326   17:20   0.00   61.7    86   13.1   294    21.0   974.5    0.00 
 326   17:30   0.00   61.3    87   12.8   292    22.9   974.4    0.00 
 326   17:40   0.00   61.1    87   12.2   287    18.9   974.3    0.00 
 326   17:50   0.00   60.9    88   12.6   286    20.0   974.1    0.00 
 326   18:00   0.00   60.7    88   11.2   282    18.4   974.0    0.00 
 326   18:10   0.00   60.5    89   12.3   284    18.5   973.9    0.00 
 326   18:20   0.00   60.2    89   12.3   282    18.4   973.8    0.00 
 326   18:30   0.00   60.0    89   11.7   284    18.0   973.9    0.00 
 326   18:40   0.00   59.9    89   10.8   283    17.3   973.9    0.00 

Return to Sedgwick Reserve graphs page.


Western Regional Climate Center,wrcc@dri.edu